createdAt,value
2018-11-10T00:02:15.606Z,28.30
2018-11-10T00:05:20.486Z,29.37
2018-11-10T00:08:24.690Z,27.87
2018-11-10T00:11:28.782Z,28.63
2018-11-10T00:14:32.918Z,27.53
2018-11-10T00:17:37.069Z,27.47
2018-11-10T00:20:41.215Z,28.43
2018-11-10T00:23:45.369Z,28.43
2018-11-10T00:26:49.542Z,29.47
2018-11-10T00:29:53.681Z,28.00
2018-11-10T00:32:57.847Z,25.40
2018-11-10T00:36:02.008Z,26.63
2018-11-10T00:39:08.448Z,24.77
2018-11-10T00:42:12.607Z,26.37
2018-11-10T00:45:16.751Z,25.97
2018-11-10T00:48:20.897Z,25.37
2018-11-10T00:51:25.035Z,23.53
2018-11-10T00:54:29.270Z,23.07
2018-11-10T00:57:33.435Z,22.90
2018-11-10T01:00:38.395Z,24.07
2018-11-10T01:03:42.555Z,24.13
2018-11-10T01:06:46.702Z,22.00
2018-11-10T01:09:50.859Z,23.27
2018-11-10T01:12:55.023Z,19.97
2018-11-10T01:15:59.158Z,22.77
2018-11-10T01:19:03.315Z,21.30
2018-11-10T01:22:07.901Z,22.57
2018-11-10T01:25:12.337Z,24.27
2018-11-10T01:28:16.474Z,23.60
2018-11-10T01:31:20.618Z,22.63
2018-11-10T01:34:24.780Z,23.07
2018-11-10T01:37:28.918Z,21.77
2018-11-10T01:40:33.065Z,21.90
2018-11-10T01:43:37.217Z,22.17
2018-11-10T01:46:41.362Z,23.20
2018-11-10T01:49:45.546Z,27.87
2018-11-10T01:52:49.683Z,28.20
2018-11-10T01:55:53.825Z,27.23
2018-11-10T01:58:59.581Z,28.83
2018-11-10T02:02:03.799Z,27.60
2018-11-10T02:05:07.999Z,30.30
2018-11-10T02:08:12.159Z,30.33
2018-11-10T02:11:16.306Z,27.40
2018-11-10T02:14:20.458Z,26.17
2018-11-10T02:17:24.593Z,26.97
2018-11-10T02:20:28.751Z,28.83
2018-11-10T02:23:32.909Z,29.53
2018-11-10T02:26:37.014Z,27.83
2018-11-10T02:29:41.124Z,25.20
2018-11-10T02:32:45.234Z,24.20
2018-11-10T02:35:49.346Z,24.67
2018-11-10T02:38:53.540Z,26.13
2018-11-10T02:41:57.588Z,24.07
2018-11-10T02:45:01.707Z,22.47
2018-11-10T02:48:05.852Z,25.33
2018-11-10T02:51:09.973Z,22.33
2018-11-10T02:54:14.076Z,21.60
2018-11-10T02:57:18.183Z,21.53
2018-11-10T03:00:22.293Z,26.13
2018-11-10T03:03:26.402Z,23.47
2018-11-10T03:06:30.504Z,27.97
2018-11-10T03:09:34.602Z,25.73
2018-11-10T03:12:39.571Z,26.13
2018-11-10T03:15:43.717Z,24.33
2018-11-10T03:18:47.840Z,23.90
2018-11-10T03:21:51.942Z,26.70
2018-11-10T03:24:56.063Z,25.80
2018-11-10T03:28:00.191Z,24.70
2018-11-10T03:31:04.303Z,25.87
2018-11-10T03:34:08.447Z,26.40
2018-11-10T03:37:12.587Z,26.47
2018-11-10T03:40:16.720Z,24.53
2018-11-10T03:43:20.851Z,26.63
2018-11-10T03:46:26.181Z,27.43
2018-11-10T03:49:30.303Z,25.63
2018-11-10T03:52:34.430Z,25.40
2018-11-10T03:55:38.564Z,24.90
2018-11-10T03:58:42.703Z,25.93
2018-11-10T04:01:46.839Z,25.10
2018-11-10T04:04:50.978Z,26.37
2018-11-10T04:07:55.107Z,25.73
2018-11-10T04:10:59.247Z,27.57
2018-11-10T04:14:03.383Z,27.73
2018-11-10T04:17:07.498Z,27.50
2018-11-10T04:20:11.675Z,26.70
2018-11-10T04:23:15.802Z,27.70
2018-11-10T04:26:19.935Z,27.37
2018-11-10T04:29:24.196Z,27.03
2018-11-10T04:32:28.324Z,25.33
2018-11-10T04:35:32.466Z,28.30
2018-11-10T04:38:36.582Z,27.97
2018-11-10T04:41:40.691Z,28.47
2018-11-10T04:44:44.823Z,28.53
2018-11-10T04:47:48.939Z,28.90
2018-11-10T04:50:53.055Z,29.53
2018-11-10T04:53:57.213Z,30.33
2018-11-10T04:57:01.324Z,29.70
2018-11-10T05:00:08.133Z,31.07
2018-11-10T05:03:12.244Z,28.53
2018-11-10T05:06:16.377Z,27.03
2018-11-10T05:09:20.528Z,27.63
2018-11-10T05:12:24.634Z,27.53
2018-11-10T05:15:28.738Z,25.17
2018-11-10T05:18:32.854Z,26.37
2018-11-10T05:21:36.960Z,27.03
2018-11-10T05:24:41.075Z,25.03
2018-11-10T05:27:45.197Z,24.97
2018-11-10T05:30:49.317Z,25.37
2018-11-10T05:33:53.439Z,25.67
2018-11-10T05:36:57.542Z,26.33
2018-11-10T05:40:01.667Z,24.47
2018-11-10T05:43:05.795Z,23.80
2018-11-10T05:46:09.921Z,24.03
2018-11-10T05:49:14.297Z,24.50
2018-11-10T05:52:18.383Z,24.47
2018-11-10T05:55:22.495Z,22.80
2018-11-10T05:58:26.599Z,22.93
2018-11-10T06:01:30.706Z,23.53
2018-11-10T06:04:34.820Z,21.07
2018-11-10T06:07:38.927Z,20.07
2018-11-10T06:10:43.034Z,19.97
2018-11-10T06:13:47.154Z,20.37
2018-11-10T06:16:51.262Z,20.50
2018-11-10T06:19:55.367Z,18.00
2018-11-10T06:22:59.511Z,20.17
2018-11-10T06:26:03.734Z,19.53
2018-11-10T06:29:07.847Z,18.07
2018-11-10T06:32:11.961Z,19.07
2018-11-10T06:35:16.073Z,19.37
2018-11-10T06:38:20.246Z,19.87
2018-11-10T06:41:24.413Z,20.00
2018-11-10T06:44:28.466Z,20.00
2018-11-10T06:47:32.567Z,20.00
2018-11-10T06:50:36.683Z,19.80
2018-11-10T06:53:40.795Z,18.30
2018-11-10T06:56:44.901Z,20.33
2018-11-10T06:59:49.014Z,18.50
2018-11-10T07:02:53.163Z,19.20
2018-11-10T07:05:57.278Z,20.57
2018-11-10T07:09:01.394Z,19.07
2018-11-10T07:12:05.822Z,20.77
2018-11-10T07:15:10.119Z,19.13
2018-11-10T07:18:14.354Z,19.37
2018-11-10T07:21:18.334Z,22.20
2018-11-10T07:24:22.443Z,21.53
2018-11-10T07:27:26.555Z,20.87
2018-11-10T07:30:30.670Z,20.70
2018-11-10T07:33:34.800Z,20.53
2018-11-10T07:36:38.940Z,20.13
2018-11-10T07:39:43.102Z,21.23
2018-11-10T07:42:47.225Z,20.97
2018-11-10T07:45:51.326Z,18.97
2018-11-10T07:48:55.566Z,19.23
2018-11-10T07:51:59.695Z,18.87
2018-11-10T07:55:03.847Z,19.67
2018-11-10T07:58:07.971Z,19.40
2018-11-10T08:01:12.107Z,17.70
2018-11-10T08:04:16.250Z,19.03
2018-11-10T08:07:20.362Z,21.63
2018-11-10T08:10:24.497Z,18.47
2018-11-10T08:13:28.606Z,20.23
2018-11-10T08:16:32.759Z,20.00
2018-11-10T08:19:36.983Z,19.77
2018-11-10T08:22:41.360Z,20.13
2018-11-10T08:25:45.499Z,18.50
2018-11-10T08:28:49.633Z,19.00
2018-11-10T08:31:53.795Z,18.37
2018-11-10T08:34:57.926Z,18.10
2018-11-10T08:38:02.074Z,17.30
2018-11-10T08:41:06.876Z,18.00
2018-11-10T08:44:11.013Z,18.47
2018-11-10T08:47:15.141Z,18.07
2018-11-10T08:50:19.287Z,16.77
2018-11-10T08:53:23.410Z,16.83
2018-11-10T08:56:27.531Z,17.93
2018-11-10T08:59:32.302Z,18.23
2018-11-10T09:02:36.544Z,17.50
2018-11-10T09:05:40.722Z,17.17
2018-11-10T09:08:44.934Z,16.57
2018-11-10T09:11:49.131Z,15.63
2018-11-10T09:14:53.287Z,17.30
2018-11-10T09:17:57.429Z,15.70
2018-11-10T09:21:01.578Z,17.60
2018-11-10T09:24:06.151Z,19.27
2018-11-10T09:27:10.298Z,17.30
2018-11-10T09:30:15.715Z,17.73
2018-11-10T09:33:19.872Z,17.47
2018-11-10T09:36:24.040Z,18.53
2018-11-10T09:39:28.155Z,19.17
2018-11-10T09:42:32.391Z,17.60
2018-11-10T09:45:36.403Z,16.43
2018-11-10T09:48:40.583Z,17.67
2018-11-10T09:51:44.700Z,16.73
2018-11-10T09:54:48.813Z,15.97
2018-11-10T09:57:53.223Z,14.57
2018-11-10T10:00:57.408Z,15.67
2018-11-10T10:04:01.446Z,14.43
2018-11-10T10:07:05.638Z,14.43
2018-11-10T10:10:12.235Z,13.60
2018-11-10T10:13:16.419Z,12.67
2018-11-10T10:16:20.614Z,12.67
2018-11-10T10:19:24.687Z,13.63
2018-11-10T10:22:28.819Z,13.23
2018-11-10T10:25:32.950Z,11.63
2018-11-10T10:28:37.177Z,12.03
2018-11-10T10:31:41.183Z,11.33
2018-11-10T10:34:45.486Z,12.60
2018-11-10T10:37:50.475Z,11.57
2018-11-10T10:40:54.618Z,11.97
2018-11-10T10:43:58.755Z,12.20
2018-11-10T10:47:02.903Z,11.73
2018-11-10T10:50:08.687Z,11.77
2018-11-10T10:53:12.827Z,12.43
2018-11-10T10:56:17.037Z,12.47
2018-11-10T10:59:21.094Z,11.90
2018-11-10T11:03:30.061Z,13.87
2018-11-10T11:06:34.182Z,11.43
2018-11-10T11:09:38.391Z,13.00
2018-11-10T11:12:42.459Z,12.53
2018-11-10T11:15:46.660Z,12.13
2018-11-10T11:18:50.748Z,15.93
2018-11-10T11:21:54.918Z,11.43
2018-11-10T11:24:59.040Z,12.90
2018-11-10T11:28:03.183Z,11.93
2018-11-10T11:31:07.388Z,10.83
2018-11-10T11:34:11.453Z,9.67
2018-11-10T11:37:15.602Z,10.23
2018-11-10T11:40:19.727Z,10.13
2018-11-10T11:43:23.890Z,10.20
2018-11-10T11:46:28.032Z,9.60
2018-11-10T11:49:32.183Z,10.27
2018-11-10T11:52:36.550Z,11.10
2018-11-10T11:55:40.696Z,11.10
2018-11-10T11:58:45.024Z,10.83
2018-11-10T12:01:49.174Z,11.20
2018-11-10T12:04:53.294Z,9.60
2018-11-10T12:07:57.447Z,10.63
2018-11-10T12:11:01.591Z,10.23
2018-11-10T12:14:05.890Z,10.40
2018-11-10T12:17:10.031Z,10.53
2018-11-10T12:20:15.331Z,9.53
2018-11-10T12:23:19.480Z,9.90
2018-11-10T12:26:23.637Z,10.43
2018-11-10T12:29:27.863Z,9.93
2018-11-10T12:32:32.014Z,10.43
2018-11-10T12:35:36.160Z,10.30
2018-11-10T12:38:40.320Z,10.33
2018-11-10T12:41:44.502Z,10.20
2018-11-10T12:44:48.661Z,10.97
2018-11-10T12:47:52.794Z,11.27
2018-11-10T12:50:56.943Z,11.77
2018-11-10T12:54:01.078Z,11.87
2018-11-10T12:57:05.351Z,11.63
2018-11-10T13:00:10.991Z,11.70
2018-11-10T13:03:15.118Z,11.07
2018-11-10T13:06:19.264Z,10.33
2018-11-10T13:09:23.414Z,10.40
2018-11-10T13:12:27.544Z,10.53
2018-11-10T13:15:31.678Z,9.53
2018-11-10T13:18:35.858Z,9.40
2018-11-10T13:21:40.557Z,9.43
2018-11-10T13:24:44.687Z,9.10
2018-11-10T13:27:48.847Z,9.17
2018-11-10T13:30:53.050Z,8.93
2018-11-10T13:33:57.122Z,7.60
2018-11-10T13:37:01.263Z,8.07
2018-11-10T13:40:05.560Z,7.27
2018-11-10T13:43:09.723Z,7.37
2018-11-10T13:46:13.850Z,7.30
2018-11-10T13:49:17.972Z,7.77
2018-11-10T13:52:22.470Z,7.53
2018-11-10T13:55:26.228Z,8.00
2018-11-10T13:58:30.363Z,7.73
2018-11-10T14:01:34.523Z,8.07
2018-11-10T14:04:38.657Z,7.97
2018-11-10T14:07:42.926Z,8.17
2018-11-10T14:10:47.061Z,7.63
2018-11-10T14:13:51.207Z,7.67
2018-11-10T14:16:55.358Z,7.63
2018-11-10T14:19:59.516Z,6.87
2018-11-10T14:23:03.650Z,7.43
2018-11-10T14:26:07.826Z,7.50
2018-11-10T14:29:11.914Z,7.10
2018-11-10T14:32:16.058Z,7.17
2018-11-10T14:35:20.203Z,6.97
2018-11-10T14:38:24.345Z,7.33
2018-11-10T14:41:28.490Z,8.57
2018-11-10T14:44:32.658Z,7.30
2018-11-10T14:47:36.807Z,7.67
2018-11-10T14:50:40.939Z,5.97
2018-11-10T14:53:45.084Z,5.90
2018-11-10T14:56:49.260Z,5.70
2018-11-10T14:59:53.383Z,5.10
2018-11-10T15:02:57.536Z,6.90
2018-11-10T15:06:01.670Z,6.13
2018-11-10T15:09:07.876Z,6.00
2018-11-10T15:12:12.085Z,5.43
2018-11-10T15:15:17.215Z,5.33
2018-11-10T15:18:21.536Z,5.70
2018-11-10T15:21:25.487Z,5.83
2018-11-10T15:24:29.628Z,5.50
2018-11-10T15:27:33.770Z,6.67
2018-11-10T15:30:37.900Z,5.47
2018-11-10T15:33:42.050Z,6.40
2018-11-10T15:36:46.344Z,6.10
2018-11-10T15:39:50.474Z,8.07
2018-11-10T15:42:54.643Z,7.83
2018-11-10T15:45:58.762Z,7.10
2018-11-10T15:49:02.923Z,7.40
2018-11-10T15:52:07.091Z,7.63
2018-11-10T15:55:11.970Z,7.90
2018-11-10T15:58:16.104Z,6.93
2018-11-10T16:01:20.244Z,6.40
2018-11-10T16:04:24.389Z,6.53
2018-11-10T16:07:28.517Z,7.33
2018-11-10T16:10:32.661Z,7.97
2018-11-10T16:13:36.790Z,7.10
2018-11-10T16:16:40.918Z,8.17
2018-11-10T16:19:45.063Z,9.27
2018-11-10T16:22:50.453Z,9.03
2018-11-10T16:25:54.580Z,8.43
2018-11-10T16:28:58.719Z,9.23
2018-11-10T16:32:02.842Z,9.17
2018-11-10T16:35:07.640Z,9.80
2018-11-10T16:38:11.785Z,9.87
2018-11-10T16:41:15.910Z,9.80
2018-11-10T16:44:20.065Z,9.43
2018-11-10T16:47:24.218Z,8.53
2018-11-10T16:50:28.350Z,9.23
2018-11-10T16:53:32.519Z,9.10
2018-11-10T16:56:36.646Z,10.90
2018-11-10T16:59:40.780Z,11.43
2018-11-10T17:02:44.927Z,10.70
2018-11-10T17:05:49.050Z,11.23
2018-11-10T17:08:53.282Z,10.53
2018-11-10T17:11:57.331Z,10.33
2018-11-10T17:15:01.472Z,12.07
2018-11-10T17:18:05.631Z,10.73
2018-11-10T17:21:09.773Z,10.37
2018-11-10T17:24:13.912Z,10.30
2018-11-10T17:27:18.069Z,11.00
2018-11-10T17:30:22.411Z,9.03
2018-11-10T17:33:26.451Z,11.13
2018-11-10T17:36:30.554Z,11.10
2018-11-10T17:39:34.776Z,11.47
2018-11-10T17:42:38.873Z,10.50
2018-11-10T17:45:42.987Z,12.70
2018-11-10T17:48:47.099Z,10.70
2018-11-10T17:51:51.243Z,11.50
2018-11-10T17:54:55.385Z,12.53
2018-11-10T17:57:59.639Z,10.57
2018-11-10T18:01:03.563Z,10.03
2018-11-10T18:04:07.695Z,10.93
2018-11-10T18:07:11.799Z,11.00
2018-11-10T18:10:17.186Z,12.53
2018-11-10T18:13:21.316Z,12.77
2018-11-10T18:16:25.466Z,11.97
2018-11-10T18:19:29.602Z,10.70
2018-11-10T18:22:33.740Z,9.67
2018-11-10T18:25:37.847Z,11.60
2018-11-10T18:28:41.968Z,10.33
2018-11-10T18:31:46.075Z,10.93
2018-11-10T18:34:50.222Z,10.20
2018-11-10T18:37:54.364Z,9.73
2018-11-10T18:40:58.490Z,10.13
2018-11-10T18:44:02.642Z,9.97
2018-11-10T18:47:06.890Z,11.60
2018-11-10T18:50:13.466Z,12.50
2018-11-10T18:53:17.623Z,12.70
2018-11-10T18:56:21.763Z,12.27
2018-11-10T18:59:25.899Z,14.13
2018-11-10T19:02:30.036Z,15.23
2018-11-10T19:05:34.182Z,15.30
2018-11-10T19:08:38.325Z,16.07
2018-11-10T19:11:42.447Z,16.87
2018-11-10T19:14:46.579Z,16.67
2018-11-10T19:17:50.806Z,15.40
2018-11-10T19:20:55.044Z,15.40
2018-11-10T19:23:59.194Z,17.70
2018-11-10T19:27:03.310Z,18.00
2018-11-10T19:30:11.222Z,16.97
2018-11-10T19:33:15.354Z,17.43
2018-11-10T19:36:19.495Z,18.13
2018-11-10T19:39:23.623Z,15.73
2018-11-10T19:42:27.734Z,16.33
2018-11-10T19:45:31.859Z,16.80
2018-11-10T19:48:36.127Z,15.47
2018-11-10T19:51:40.536Z,16.33
2018-11-10T19:54:44.359Z,16.00
2018-11-10T19:57:48.490Z,17.27
2018-11-10T20:00:52.714Z,17.00
2018-11-10T20:03:56.723Z,17.07
2018-11-10T20:07:00.829Z,17.63
2018-11-10T20:10:05.203Z,16.13
2018-11-10T20:13:09.418Z,16.77
2018-11-10T20:16:13.459Z,17.90
2018-11-10T20:19:17.590Z,17.27
2018-11-10T20:22:21.717Z,15.27
2018-11-10T20:25:25.842Z,14.90
2018-11-10T20:28:29.963Z,15.70
2018-11-10T20:31:34.086Z,17.07
2018-11-10T20:34:38.230Z,14.37
2018-11-10T20:37:43.003Z,16.40
2018-11-10T20:40:47.142Z,16.67
2018-11-10T20:43:51.270Z,17.33
2018-11-10T20:46:55.399Z,18.50
2018-11-10T20:49:59.736Z,16.27
2018-11-10T20:53:03.855Z,18.17
2018-11-10T20:56:07.969Z,16.90
2018-11-10T20:59:12.089Z,17.13
2018-11-10T21:02:16.191Z,17.00
2018-11-10T21:05:20.322Z,18.97
2018-11-10T21:08:24.467Z,17.23
2018-11-10T21:11:28.590Z,17.63
2018-11-10T21:14:32.723Z,16.63
2018-11-10T21:17:37.082Z,17.23
2018-11-10T21:20:41.550Z,16.50
2018-11-10T21:23:45.669Z,17.00
2018-11-10T21:26:49.780Z,16.50
2018-11-10T21:29:53.979Z,16.80
2018-11-10T21:32:58.047Z,17.30
2018-11-10T21:36:02.199Z,17.43
2018-11-10T21:39:09.819Z,17.00
2018-11-10T21:42:13.963Z,17.63
2018-11-10T21:45:18.482Z,15.83
2018-11-10T21:48:22.636Z,16.80
2018-11-10T21:51:26.795Z,16.87
2018-11-10T21:54:30.931Z,17.73
2018-11-10T21:57:35.066Z,16.80
2018-11-10T22:00:39.215Z,16.37
2018-11-10T22:03:43.338Z,16.77
2018-11-10T22:06:47.487Z,15.50
2018-11-10T22:09:51.665Z,15.97
2018-11-10T22:12:55.783Z,15.70
2018-11-10T22:16:00.043Z,15.77
2018-11-10T22:19:04.063Z,16.90
2018-11-10T22:22:08.206Z,16.30
2018-11-10T22:25:13.175Z,16.37
2018-11-10T22:28:17.322Z,15.10
2018-11-10T22:31:21.563Z,15.30
2018-11-10T22:34:25.703Z,15.40
2018-11-10T22:37:29.811Z,15.47
2018-11-10T22:40:33.936Z,15.40
2018-11-10T22:43:38.050Z,14.10
2018-11-10T22:46:42.169Z,14.70
2018-11-10T22:49:46.510Z,15.17
2018-11-10T22:52:50.669Z,15.07
2018-11-10T22:55:54.797Z,15.20
2018-11-10T22:58:58.927Z,16.37
2018-11-10T23:02:03.059Z,16.00
2018-11-10T23:05:07.843Z,16.17
2018-11-10T23:08:11.963Z,16.27
2018-11-10T23:11:16.085Z,15.77
2018-11-10T23:14:20.219Z,15.73
2018-11-10T23:17:24.323Z,15.97
2018-11-10T23:20:28.457Z,15.33
2018-11-10T23:23:32.641Z,16.13
2018-11-10T23:26:36.707Z,15.23
2018-11-10T23:29:40.827Z,15.23
2018-11-10T23:32:44.955Z,15.27
2018-11-10T23:35:49.091Z,15.07
2018-11-10T23:38:53.217Z,15.47
2018-11-10T23:41:57.359Z,14.43
2018-11-10T23:45:01.507Z,15.47
2018-11-10T23:48:06.081Z,15.33
2018-11-10T23:51:10.225Z,14.67
2018-11-10T23:54:14.412Z,15.27
2018-11-10T23:57:18.510Z,14.67
